Iver Agile — IBHW — position and weather

sailwx.info

Track history (hours):
 
Tides and Currents Weather Stations Pressure Air Temp Water Temp Dewpoint Dewpoint Depression Visibility Wind Speed Wind Dir Waves Ship Positions

Iver Agile

Last reported at 2016-Apr-29 22:33 UTC. Time now 2016-May-03 20:09 UTC.
Position N 35°59' W 005°32'.

Length 110 m; draft 5 m.

Type: Tanker. MMSI: 247103700.

Date/timePositionNaut miles runAvg speedWind from/ knotsBaromVisibWave heightAir tempDewpointWater temp
2016-Apr-29 22:33N 35°59' W 005°32'1111.3
2016-Apr-29 21:33N 36°02' W 005°18'  
2016-Apr-24 01:32N 38°39' E 002°11'1313.2
2016-Apr-24 00:33N 38°51' E 002°04'1313.3
2016-Apr-23 23:33N 39°04' E 001°58'1313.5
2016-Apr-23 22:33N 39°16' E 001°51'1312.8
2016-Apr-23 21:33N 39°28' E 001°46'1612.8
2016-Apr-23 20:18N 39°43' E 001°38'1012.9
2016-Apr-23 19:33N 39°52' E 001°32'1312.8
2016-Apr-23 18:33N 40°04' E 001°27'1312.9
2016-Apr-23 17:33N 40°16' E 001°21'1212.5
2016-Apr-23 16:34N 40°27' E 001°15'1212.4
2016-Apr-23 15:33N 40°39' E 001°10'2611.7
2016-Apr-23 13:21N 41°05' E 001°13'3 0.1
2016-Apr-22 15:11N 41°06' E 001°16'0 0.0
2016-Apr-22 13:29N 41°06' E 001°16'0 0.0
2016-Apr-21 20:11N 41°06' E 001°16'0 0.0
2016-Apr-21 19:26N 41°06' E 001°16'41 5.8
2016-Apr-21 12:20N 40°26' E 001°02'15212.9
2016-Apr-21 00:33N 38°03' W 000°05'1413.2
2016-Apr-20 23:27N 37°51' W 000°15'1213.0
2016-Apr-20 22:33N 37°41' W 000°23'1313.0
2016-Apr-20 21:33N 37°31' W 000°34'1313.2
2016-Apr-20 20:33N 37°22' W 000°46'1413.3
2016-Apr-20 19:29N 37°13' W 000°59'21612.5
2016-Apr-20 02:13N 36°00' W 005°12'1014.5
2016-Apr-20 01:34N 35°59' W 005°24'  
Track history (hours):
 
Tides and Currents Weather Stations Pressure Air Temp Water Temp Dewpoint Dewpoint Depression Visibility Wind Speed Wind Dir Waves Ship Positions

Iver Agile

Last reported at 2016-Apr-29 22:33 UTC. Time now 2016-May-03 20:09 UTC.
Position N 35°59' W 005°32'.

Length 110 m; draft 5 m.

Type: Tanker. MMSI: 247103700.

Date/timePositionNaut miles runAvg speedWind from/ knotsBaromVisibWave heightAir tempDewpointWater temp
2016-Apr-29 22:33N 35°59' W 005°32'1111.3
2016-Apr-29 21:33N 36°02' W 005°18'  
2016-Apr-24 01:32N 38°39' E 002°11'1313.2
2016-Apr-24 00:33N 38°51' E 002°04'1313.3
2016-Apr-23 23:33N 39°04' E 001°58'1313.5
2016-Apr-23 22:33N 39°16' E 001°51'1312.8
2016-Apr-23 21:33N 39°28' E 001°46'1612.8
2016-Apr-23 20:18N 39°43' E 001°38'1012.9
2016-Apr-23 19:33N 39°52' E 001°32'1312.8
2016-Apr-23 18:33N 40°04' E 001°27'1312.9
2016-Apr-23 17:33N 40°16' E 001°21'1212.5
2016-Apr-23 16:34N 40°27' E 001°15'1212.4
2016-Apr-23 15:33N 40°39' E 001°10'2611.7
2016-Apr-23 13:21N 41°05' E 001°13'3 0.1
2016-Apr-22 15:11N 41°06' E 001°16'0 0.0
2016-Apr-22 13:29N 41°06' E 001°16'0 0.0
2016-Apr-21 20:11N 41°06' E 001°16'0 0.0
2016-Apr-21 19:26N 41°06' E 001°16'41 5.8
2016-Apr-21 12:20N 40°26' E 001°02'15212.9
2016-Apr-21 00:33N 38°03' W 000°05'1413.2
2016-Apr-20 23:27N 37°51' W 000°15'1213.0
2016-Apr-20 22:33N 37°41' W 000°23'1313.0
2016-Apr-20 21:33N 37°31' W 000°34'1313.2
2016-Apr-20 20:33N 37°22' W 000°46'1413.3
2016-Apr-20 19:29N 37°13' W 000°59'21612.5
2016-Apr-20 02:13N 36°00' W 005°12'1014.5
2016-Apr-20 01:34N 35°59' W 005°24'  

Dump ship's entire track history